createdAt,value
2022-10-20T00:00:50.079Z,7
2022-10-20T00:01:51.974Z,7
2022-10-20T00:02:55.336Z,7
2022-10-20T00:03:58.761Z,7
2022-10-20T00:05:01.632Z,6.9
2022-10-20T00:06:05.008Z,7
2022-10-20T00:07:07.613Z,7
2022-10-20T00:08:11.431Z,7
2022-10-20T00:09:14.235Z,7
2022-10-20T00:10:17.584Z,7
2022-10-20T00:11:21.449Z,7
2022-10-20T00:12:24.618Z,6.9
2022-10-20T00:13:27.141Z,6.9
2022-10-20T00:14:29.880Z,6.9
2022-10-20T00:15:33.688Z,6.9
2022-10-20T00:16:36.848Z,6.9
2022-10-20T00:17:39.743Z,6.9
2022-10-20T00:18:42.820Z,6.9
2022-10-20T00:19:45.911Z,6.9
2022-10-20T00:20:49.132Z,6.9
2022-10-20T00:21:52.466Z,7
2022-10-20T00:22:55.531Z,7
2022-10-20T00:23:58.592Z,7
2022-10-20T00:25:01.308Z,7
2022-10-20T00:26:04.531Z,7
2022-10-20T00:27:08.359Z,7
2022-10-20T00:28:12.152Z,6.9
2022-10-20T00:29:15.797Z,6.9
2022-10-20T00:30:25.619Z,6.9
2022-10-20T00:31:28.830Z,6.8
2022-10-20T00:32:31.657Z,6.8
2022-10-20T00:33:34.456Z,6.8
2022-10-20T00:34:37.446Z,6.8
2022-10-20T00:35:40.715Z,6.8
2022-10-20T00:36:52.376Z,6.8
2022-10-20T00:37:55.172Z,6.8
2022-10-20T00:38:58.631Z,6.8
2022-10-20T00:40:02.323Z,6.8
2022-10-20T00:41:05.843Z,6.8
2022-10-20T00:42:08.362Z,6.7
2022-10-20T00:43:11.557Z,6.7
2022-10-20T00:44:14.911Z,6.7
2022-10-20T00:45:17.707Z,6.7
2022-10-20T00:46:20.611Z,6.6
2022-10-20T00:47:22.775Z,6.6
2022-10-20T00:48:26.049Z,6.6
2022-10-20T00:49:28.836Z,6.6
2022-10-20T00:50:31.906Z,6.6
2022-10-20T00:51:34.962Z,6.6
2022-10-20T00:52:39.146Z,6.6
2022-10-20T00:53:41.853Z,6.7
2022-10-20T00:54:44.564Z,6.7
2022-10-20T00:55:47.726Z,6.6
2022-10-20T00:56:50.170Z,6.6
2022-10-20T00:57:53.364Z,6.6
2022-10-20T00:58:56.560Z,6.6
2022-10-20T01:00:00.001Z,6.6
2022-10-20T01:01:03.040Z,6.5
2022-10-20T01:02:06.684Z,6.5
2022-10-20T01:03:10.567Z,6.6
2022-10-20T01:04:13.835Z,6.5
2022-10-20T01:05:17.255Z,6.5
2022-10-20T01:06:19.974Z,6.5
2022-10-20T01:07:22.838Z,6.5
2022-10-20T01:08:26.459Z,6.5
2022-10-20T01:09:29.446Z,6.5
2022-10-20T01:10:32.266Z,6.5
2022-10-20T01:11:35.708Z,6.5
2022-10-20T01:12:38.774Z,6.5
2022-10-20T01:13:42.423Z,6.4
2022-10-20T01:14:45.966Z,6.5
2022-10-20T01:15:49.322Z,6.4
2022-10-20T01:16:52.674Z,6.4
2022-10-20T01:17:55.295Z,6.4
2022-10-20T01:18:58.480Z,6.4
2022-10-20T01:20:01.553Z,6.4
2022-10-20T01:21:03.991Z,6.4
2022-10-20T01:22:07.429Z,6.3
2022-10-20T01:23:10.425Z,6.4
2022-10-20T01:24:13.851Z,6.4
2022-10-20T01:25:17.647Z,6.4
2022-10-20T01:26:21.374Z,6.4
2022-10-20T01:27:24.373Z,6.4
2022-10-20T01:28:26.805Z,6.4
2022-10-20T01:29:30.157Z,6.4
2022-10-20T01:30:33.998Z,6.4
2022-10-20T01:31:37.097Z,6.3
2022-10-20T01:32:39.542Z,6.3
2022-10-20T01:33:42.625Z,6.3
2022-10-20T01:34:53.966Z,6.3
2022-10-20T01:35:56.754Z,6.3
2022-10-20T01:36:59.817Z,6.3
2022-10-20T01:38:02.333Z,6.3
2022-10-20T01:39:05.119Z,6.3
2022-10-20T01:40:07.933Z,6.3
2022-10-20T01:41:10.723Z,6.4
2022-10-20T01:42:13.163Z,6.4
2022-10-20T01:43:16.548Z,6.3
2022-10-20T01:44:19.338Z,6.3
2022-10-20T01:45:22.688Z,6.3
2022-10-20T01:46:26.263Z,6.3
2022-10-20T01:47:29.611Z,6.3
2022-10-20T01:48:32.680Z,6.3
2022-10-20T01:49:36.422Z,6.3
2022-10-20T01:50:40.057Z,6.3
2022-10-20T01:52:44.956Z,6.3
2022-10-20T01:53:47.291Z,6.3
2022-10-20T01:54:50.284Z,6.3
2022-10-20T01:55:53.443Z,6.3
2022-10-20T01:56:56.235Z,6.3
2022-10-20T01:57:58.681Z,6.3
2022-10-20T01:59:01.580Z,6.3
2022-10-20T02:00:05.089Z,6.2
2022-10-20T02:01:08.516Z,6.2
2022-10-20T02:02:11.784Z,6.2
2022-10-20T02:03:15.804Z,6.2
2022-10-20T02:04:18.986Z,6.2
2022-10-20T02:05:21.825Z,6.2
2022-10-20T02:06:24.878Z,6.1
2022-10-20T02:07:27.649Z,6.1
2022-10-20T02:08:30.410Z,6.1
2022-10-20T02:09:33.585Z,6.2
2022-10-20T02:10:36.757Z,6.2
2022-10-20T02:11:39.557Z,6.1
2022-10-20T02:12:42.902Z,6.2
2022-10-20T02:13:45.056Z,6.1
2022-10-20T02:14:48.217Z,6.1
2022-10-20T02:15:51.344Z,6
2022-10-20T02:16:53.501Z,6
2022-10-20T02:17:57.339Z,6
2022-10-20T02:19:00.263Z,6
2022-10-20T02:20:03.551Z,6
2022-10-20T02:21:07.643Z,6
2022-10-20T02:22:10.716Z,5.9
2022-10-20T02:23:13.584Z,6
2022-10-20T02:24:16.059Z,5.9
2022-10-20T02:25:18.916Z,6
2022-10-20T02:26:21.352Z,6
2022-10-20T02:27:24.706Z,6
2022-10-20T02:28:27.971Z,6
2022-10-20T02:29:30.571Z,6
2022-10-20T02:30:33.014Z,6
2022-10-20T02:31:35.729Z,6
2022-10-20T02:32:40.481Z,6
2022-10-20T02:33:44.016Z,6.1
2022-10-20T02:34:47.251Z,6.1
2022-10-20T02:35:50.045Z,6
2022-10-20T02:36:52.592Z,6
2022-10-20T02:37:55.696Z,6
2022-10-20T02:38:58.558Z,6
2022-10-20T02:40:01.567Z,6
2022-10-20T02:41:05.199Z,6
2022-10-20T02:42:08.640Z,6
2022-10-20T02:43:12.087Z,6
2022-10-20T02:44:14.876Z,6
2022-10-20T02:45:17.948Z,6
2022-10-20T02:46:20.831Z,6
2022-10-20T02:47:23.632Z,6
2022-10-20T02:48:26.340Z,6
2022-10-20T02:49:29.912Z,6
2022-10-20T02:50:33.283Z,6
2022-10-20T02:51:36.152Z,6
2022-10-20T02:52:39.945Z,6.1
2022-10-20T02:53:43.111Z,6.1
2022-10-20T02:54:46.288Z,6.1
2022-10-20T02:55:49.428Z,6.1
2022-10-20T02:56:52.505Z,6.1
2022-10-20T02:57:54.384Z,6
2022-10-20T02:58:57.390Z,6
2022-10-20T03:00:00.106Z,6
2022-10-20T03:01:02.899Z,6
2022-10-20T03:02:05.941Z,5.9
2022-10-20T03:03:09.563Z,5.9
2022-10-20T03:04:12.698Z,5.9
2022-10-20T03:05:16.281Z,5.9
2022-10-20T03:06:19.729Z,5.9
2022-10-20T03:07:22.332Z,5.9
2022-10-20T03:08:25.995Z,6
2022-10-20T03:09:29.464Z,6
2022-10-20T03:10:32.892Z,6
2022-10-20T03:11:35.411Z,5.9
2022-10-20T03:12:38.478Z,6
2022-10-20T03:13:41.260Z,6
2022-10-20T03:14:44.554Z,6
2022-10-20T03:15:47.347Z,5.9
2022-10-20T03:16:50.542Z,5.9
2022-10-20T03:17:53.713Z,5.9
2022-10-20T03:19:12.552Z,5.9
2022-10-20T03:20:15.347Z,6
2022-10-20T03:21:18.584Z,6
2022-10-20T03:22:22.470Z,6
2022-10-20T03:23:26.567Z,5.9
2022-10-20T03:24:29.531Z,5.9
2022-10-20T03:25:32.333Z,5.9
2022-10-20T03:26:35.677Z,5.9
2022-10-20T03:27:40.366Z,5.9
2022-10-20T03:28:43.533Z,5.9
2022-10-20T03:29:46.984Z,5.9
2022-10-20T03:30:49.978Z,5.9
2022-10-20T03:31:52.603Z,5.9
2022-10-20T03:32:55.668Z,5.9
2022-10-20T03:33:58.743Z,5.9
2022-10-20T03:35:01.609Z,5.9
2022-10-20T03:36:04.133Z,5.9
2022-10-20T03:37:07.684Z,5.9
2022-10-20T03:38:11.121Z,5.9
2022-10-20T03:39:14.282Z,5.9
2022-10-20T03:40:16.742Z,5.9
2022-10-20T03:41:19.937Z,5.9
2022-10-20T03:42:23.317Z,5.9
2022-10-20T03:43:26.691Z,5.8
2022-10-20T03:44:29.648Z,5.8
2022-10-20T03:45:32.242Z,5.8
2022-10-20T03:46:35.220Z,5.8
2022-10-20T03:47:38.109Z,5.8
2022-10-20T03:48:40.982Z,5.8
2022-10-20T03:49:43.802Z,5.8
2022-10-20T03:50:46.800Z,5.8
2022-10-20T03:51:48.963Z,5.9
2022-10-20T03:52:52.789Z,5.9
2022-10-20T03:53:56.215Z,5.8
2022-10-20T03:54:58.527Z,5.9
2022-10-20T03:56:01.082Z,5.8
2022-10-20T03:57:08.891Z,5.8
2022-10-20T03:58:11.954Z,5.8
2022-10-20T03:59:15.400Z,5.7
2022-10-20T04:00:17.546Z,5.7
2022-10-20T04:01:21.049Z,5.8
2022-10-20T04:02:23.973Z,5.7
2022-10-20T04:03:26.776Z,5.7
2022-10-20T04:04:29.434Z,5.7
2022-10-20T04:05:32.223Z,5.7
2022-10-20T04:06:34.819Z,5.7
2022-10-20T04:07:37.409Z,5.7
2022-10-20T04:08:42.066Z,5.7
2022-10-20T04:09:45.776Z,5.6
2022-10-20T04:10:48.569Z,5.6
2022-10-20T04:11:51.827Z,5.6
2022-10-20T04:12:54.543Z,5.7
2022-10-20T04:13:57.411Z,5.7
2022-10-20T04:15:00.563Z,5.7
2022-10-20T04:16:03.009Z,5.7
2022-10-20T04:17:06.203Z,5.6
2022-10-20T04:18:09.275Z,5.6
2022-10-20T04:19:11.714Z,5.6
2022-10-20T04:20:14.513Z,5.6
2022-10-20T04:21:17.305Z,5.6
2022-10-20T04:22:20.391Z,5.6
2022-10-20T04:23:23.383Z,5.6
2022-10-20T04:24:26.876Z,5.6
2022-10-20T04:25:30.327Z,5.6
2022-10-20T04:26:33.846Z,5.6
2022-10-20T04:27:38.194Z,5.6
2022-10-20T04:28:41.822Z,5.5
2022-10-20T04:29:45.283Z,5.5
2022-10-20T04:30:48.071Z,5.5
2022-10-20T04:31:50.738Z,5.5
2022-10-20T04:32:54.067Z,5.4
2022-10-20T04:33:56.940Z,5.4
2022-10-20T04:35:00.033Z,5.4
2022-10-20T04:36:02.842Z,5.4
2022-10-20T04:37:05.362Z,5.4
2022-10-20T04:38:07.956Z,5.4
2022-10-20T04:39:10.487Z,5.4
2022-10-20T04:40:14.290Z,5.4
2022-10-20T04:41:18.058Z,5.4
2022-10-20T04:42:21.114Z,5.4
2022-10-20T04:43:24.012Z,5.4
2022-10-20T04:44:26.793Z,5.4
2022-10-20T04:45:29.502Z,5.4
2022-10-20T04:46:31.933Z,5.4
2022-10-20T04:47:37.323Z,5.4
2022-10-20T04:48:39.851Z,5.4
2022-10-20T04:49:42.403Z,5.5
2022-10-20T04:50:46.025Z,5.5
2022-10-20T04:51:49.009Z,5.5
2022-10-20T04:52:51.703Z,5.5
2022-10-20T04:53:54.792Z,5.5
2022-10-20T04:54:57.914Z,5.5
2022-10-20T04:56:01.436Z,5.5
2022-10-20T04:57:04.884Z,5.5
2022-10-20T04:58:07.139Z,5.5
2022-10-20T04:59:15.367Z,5.5
2022-10-20T05:00:19.105Z,5.5
2022-10-20T05:01:22.566Z,5.5
2022-10-20T05:02:25.345Z,5.5
2022-10-20T05:03:28.482Z,5.5
2022-10-20T05:04:30.993Z,5.5
2022-10-20T05:05:33.856Z,5.5
2022-10-20T05:06:36.713Z,5.5
2022-10-20T05:07:40.989Z,5.5
2022-10-20T05:08:44.516Z,5.5
2022-10-20T05:09:48.019Z,5.5
2022-10-20T05:10:50.621Z,5.5
2022-10-20T05:11:54.439Z,5.5
2022-10-20T05:12:57.776Z,5.5
2022-10-20T05:14:00.547Z,5.5
2022-10-20T05:15:03.557Z,5.5
2022-10-20T05:16:05.434Z,5.5
2022-10-20T05:17:11.813Z,5.4
2022-10-20T05:18:14.577Z,5.4
2022-10-20T05:19:17.084Z,5.4
2022-10-20T05:20:20.227Z,5.3
2022-10-20T05:21:23.955Z,5.3
2022-10-20T05:22:27.022Z,5.3
2022-10-20T05:23:29.726Z,5.3
2022-10-20T05:24:33.427Z,5.3
2022-10-20T05:25:38.494Z,5.4
2022-10-20T05:26:41.309Z,5.4
2022-10-20T05:27:45.397Z,5.4
2022-10-20T05:28:49.183Z,5.4
2022-10-20T05:29:52.621Z,5.4
2022-10-20T05:31:02.811Z,5.4
2022-10-20T05:32:05.835Z,5.4
2022-10-20T05:33:08.274Z,5.4
2022-10-20T05:34:11.634Z,5.4
2022-10-20T05:35:15.076Z,5.4
2022-10-20T05:36:23.004Z,5.5
2022-10-20T05:37:28.580Z,5.4
2022-10-20T05:38:31.576Z,5.4
2022-10-20T05:39:34.805Z,5.4
2022-10-20T05:40:38.442Z,5.4
2022-10-20T05:41:41.786Z,5.4
2022-10-20T05:42:45.058Z,5.3
2022-10-20T05:43:48.757Z,5.4
2022-10-20T05:44:52.744Z,5.3
2022-10-20T05:45:55.617Z,5.3
2022-10-20T05:46:58.157Z,5.3
2022-10-20T05:48:01.552Z,5.3
2022-10-20T05:49:04.352Z,5.3
2022-10-20T05:50:07.823Z,5.3
2022-10-20T05:51:16.339Z,5.2
2022-10-20T05:52:19.132Z,5.2
2022-10-20T05:53:22.126Z,5.2
2022-10-20T05:54:25.203Z,5.1
2022-10-20T05:55:27.993Z,5.1
2022-10-20T05:56:30.781Z,5.1
2022-10-20T05:57:33.296Z,5.1
2022-10-20T05:58:36.024Z,5.1
2022-10-20T05:59:39.773Z,5.2
2022-10-20T06:00:43.611Z,5.2
2022-10-20T06:01:46.638Z,5.2
2022-10-20T06:02:49.992Z,5.2
2022-10-20T06:03:52.961Z,5.2
2022-10-20T06:04:56.125Z,5.2
2022-10-20T06:05:59.279Z,5.2
2022-10-20T06:07:02.933Z,5.2
2022-10-20T06:08:06.278Z,5.2
2022-10-20T06:09:09.418Z,5.2
2022-10-20T06:10:12.688Z,5.2
2022-10-20T06:11:15.846Z,5.2
2022-10-20T06:12:19.017Z,5.2
2022-10-20T06:13:21.691Z,5.2
2022-10-20T06:14:24.480Z,5.2
2022-10-20T06:15:28.108Z,5.1
2022-10-20T06:16:31.861Z,5.1
2022-10-20T06:17:35.539Z,5.1
2022-10-20T06:18:38.351Z,5.1
2022-10-20T06:19:41.158Z,5.2
2022-10-20T06:20:44.498Z,5.2
2022-10-20T06:21:50.686Z,5.2
2022-10-20T06:22:53.776Z,5.2
2022-10-20T06:23:56.764Z,5.2
2022-10-20T06:24:59.901Z,5.2
2022-10-20T06:26:02.889Z,5.2
2022-10-20T06:27:05.126Z,5.2
2022-10-20T06:28:09.000Z,5.2
2022-10-20T06:29:12.080Z,5.3
2022-10-20T06:30:15.138Z,5.3
2022-10-20T06:31:18.150Z,5.3
2022-10-20T06:32:21.586Z,5.3
2022-10-20T06:33:24.548Z,5.4
2022-10-20T06:34:27.382Z,5.4
2022-10-20T06:35:30.613Z,5.5
2022-10-20T06:36:33.954Z,5.4
2022-10-20T06:37:37.033Z,5.5
2022-10-20T06:38:40.774Z,5.5
2022-10-20T06:39:43.833Z,5.5
2022-10-20T06:40:46.268Z,5.5
2022-10-20T06:41:49.060Z,5.5
2022-10-20T06:42:52.400Z,5.5
2022-10-20T06:43:55.844Z,5.5
2022-10-20T06:44:59.497Z,5.5
2022-10-20T06:46:02.370Z,5.6
2022-10-20T06:47:06.358Z,5.6
2022-10-20T06:48:09.813Z,5.7
2022-10-20T06:49:12.901Z,5.7
2022-10-20T06:50:15.366Z,5.8
2022-10-20T06:51:18.808Z,5.7
2022-10-20T06:52:21.615Z,5.7
2022-10-20T06:53:24.590Z,5.8
2022-10-20T06:54:27.972Z,5.8
2022-10-20T06:55:31.474Z,5.9
2022-10-20T06:56:34.829Z,5.9
2022-10-20T06:57:37.711Z,6
2022-10-20T06:58:41.163Z,6
2022-10-20T06:59:44.777Z,6.1
2022-10-20T07:00:47.918Z,6.2
2022-10-20T07:01:51.705Z,6.2
2022-10-20T07:02:55.552Z,6.2
2022-10-20T07:03:59.281Z,6.2
2022-10-20T07:05:02.172Z,6.2
2022-10-20T07:06:05.068Z,6.3
2022-10-20T07:07:08.804Z,6.3
2022-10-20T07:08:12.151Z,6.4
2022-10-20T07:09:15.599Z,6.4
2022-10-20T07:10:18.667Z,6.5
2022-10-20T07:11:21.477Z,6.5
2022-10-20T07:12:24.542Z,6.5
2022-10-20T07:13:28.336Z,6.5
2022-10-20T07:14:34.397Z,6.5
2022-10-20T07:15:37.847Z,6.5
2022-10-20T07:16:40.557Z,6.6
2022-10-20T07:17:44.295Z,6.6
2022-10-20T07:18:48.220Z,6.6
2022-10-20T07:19:51.975Z,6.7
2022-10-20T07:20:54.970Z,6.7
2022-10-20T07:21:58.346Z,6.7
2022-10-20T07:23:01.231Z,6.8
2022-10-20T07:24:04.388Z,6.7
2022-10-20T07:25:07.844Z,6.7
2022-10-20T07:26:10.643Z,6.8
2022-10-20T07:27:14.296Z,6.9
2022-10-20T07:28:17.094Z,6.9
2022-10-20T07:29:20.065Z,6.9
2022-10-20T07:30:23.617Z,6.9
2022-10-20T07:31:26.772Z,6.9
2022-10-20T07:32:29.924Z,6.9
2022-10-20T07:33:32.797Z,6.9
2022-10-20T07:34:36.259Z,7
2022-10-20T07:35:39.962Z,7
2022-10-20T07:36:43.693Z,7.1
2022-10-20T07:37:47.142Z,7.2
2022-10-20T07:38:50.279Z,7.2
2022-10-20T07:39:53.328Z,7.3
2022-10-20T07:41:02.160Z,7.4
2022-10-20T07:42:04.866Z,7.5
2022-10-20T07:43:07.378Z,7.5
2022-10-20T07:44:10.255Z,7.5
2022-10-20T07:45:13.402Z,7.5
2022-10-20T07:46:16.664Z,7.6
2022-10-20T07:47:20.035Z,7.7
2022-10-20T07:48:22.552Z,7.7
2022-10-20T07:49:46.702Z,7.7
2022-10-20T07:50:50.413Z,7.7
2022-10-20T07:51:53.591Z,7.7
2022-10-20T07:52:56.967Z,7.8
2022-10-20T07:54:02.575Z,7.7
2022-10-20T07:55:40.379Z,7.7
2022-10-20T07:56:44.180Z,7.8
2022-10-20T07:57:47.326Z,7.8
2022-10-20T07:58:50.560Z,7.9
2022-10-20T07:59:52.999Z,7.9
2022-10-20T08:00:56.510Z,8
2022-10-20T08:02:02.224Z,8.1
2022-10-20T08:03:05.347Z,8.2
2022-10-20T08:04:07.596Z,8.1
2022-10-20T08:05:11.104Z,8.2
2022-10-20T08:06:15.052Z,8.3
2022-10-20T08:07:18.415Z,8.3
2022-10-20T08:08:21.864Z,8.4
2022-10-20T08:09:24.374Z,8.4
2022-10-20T08:10:27.093Z,8.5
2022-10-20T08:11:30.463Z,8.6
2022-10-20T08:12:34.621Z,8.6
2022-10-20T08:13:37.751Z,8.7
2022-10-20T08:14:41.999Z,8.8
2022-10-20T08:15:47.698Z,8.8
2022-10-20T08:16:52.817Z,8.9
2022-10-20T08:17:57.149Z,8.9
2022-10-20T08:19:02.580Z,9
2022-10-20T08:20:08.929Z,9
2022-10-20T08:21:13.953Z,9.1
2022-10-20T08:22:18.019Z,9.1
2022-10-20T08:23:21.287Z,9.3
2022-10-20T08:24:24.298Z,9.3
2022-10-20T08:25:26.889Z,9.3
2022-10-20T08:26:29.952Z,9.4
2022-10-20T08:27:32.943Z,9.5
2022-10-20T08:28:35.339Z,9.6
2022-10-20T08:29:39.074Z,9.8
2022-10-20T08:30:42.500Z,10
2022-10-20T08:31:45.571Z,10.1
2022-10-20T08:32:48.726Z,10.2
2022-10-20T08:33:55.030Z,10.4
2022-10-20T08:34:58.379Z,10.4
2022-10-20T08:36:01.183Z,10.5
2022-10-20T08:37:04.334Z,10.6
2022-10-20T08:38:08.176Z,10.7
2022-10-20T08:39:11.512Z,10.8
2022-10-20T08:40:14.391Z,10.9
2022-10-20T08:41:17.484Z,10.9
2022-10-20T08:42:20.761Z,11
2022-10-20T08:43:23.630Z,11.1
2022-10-20T08:44:26.725Z,11.1
2022-10-20T08:45:29.237Z,11.1
2022-10-20T08:46:31.283Z,11
2022-10-20T08:47:36.916Z,11
2022-10-20T08:48:41.082Z,11
2022-10-20T08:49:44.145Z,10.9
2022-10-20T08:50:47.143Z,10.8
2022-10-20T08:51:50.668Z,10.7
2022-10-20T08:52:53.957Z,10.7
2022-10-20T08:53:57.523Z,10.6
2022-10-20T08:55:00.645Z,10.5
2022-10-20T08:56:03.463Z,10.6
2022-10-20T08:57:06.906Z,10.7
2022-10-20T08:58:09.694Z,10.7
2022-10-20T08:59:12.288Z,10.8
2022-10-20T09:00:15.364Z,10.8
2022-10-20T09:01:18.976Z,10.9
2022-10-20T09:02:21.904Z,10.9
2022-10-20T09:03:24.973Z,11
2022-10-20T09:04:27.488Z,11
2022-10-20T09:05:30.841Z,11
2022-10-20T09:06:33.713Z,11.1
2022-10-20T09:07:39.218Z,11.2
2022-10-20T09:08:43.404Z,11.1
2022-10-20T09:09:47.536Z,11.2
2022-10-20T09:10:50.350Z,11.3
2022-10-20T09:11:54.103Z,11.5
2022-10-20T09:12:58.103Z,11.6
2022-10-20T09:14:01.047Z,11.8
2022-10-20T09:15:04.186Z,11.9
2022-10-20T09:16:07.623Z,12.1
2022-10-20T09:17:13.388Z,12.2
2022-10-20T09:18:16.373Z,12.1
2022-10-20T09:19:19.238Z,12.2
2022-10-20T09:20:22.606Z,12.3
2022-10-20T09:21:26.035Z,12.4
2022-10-20T09:22:37.292Z,12.5
2022-10-20T09:23:44.275Z,12.5
2022-10-20T09:24:47.228Z,12.5
2022-10-20T09:25:50.734Z,12.6
2022-10-20T09:27:01.732Z,12.6
2022-10-20T09:28:04.200Z,12.7
2022-10-20T09:29:16.436Z,12.7
2022-10-20T09:30:20.141Z,12.7
2022-10-20T09:31:22.860Z,13
2022-10-20T09:32:55.820Z,13.2
2022-10-20T09:33:59.290Z,13.6
2022-10-20T09:35:02.454Z,13.9
2022-10-20T09:36:05.613Z,14.1
2022-10-20T09:37:08.702Z,14
2022-10-20T09:38:11.773Z,13.9
2022-10-20T09:39:15.473Z,13.8
2022-10-20T09:40:18.869Z,14
2022-10-20T09:41:23.035Z,14
2022-10-20T09:42:26.258Z,13.9
2022-10-20T09:43:30.264Z,14
2022-10-20T09:44:34.011Z,13.9
2022-10-20T09:45:37.656Z,13.8
2022-10-20T09:46:40.295Z,13.8
2022-10-20T09:47:43.095Z,13.6
2022-10-20T09:48:45.623Z,13.6
2022-10-20T09:49:49.078Z,13.7
2022-10-20T09:50:51.798Z,13.7
2022-10-20T09:51:54.583Z,13.7
2022-10-20T09:52:57.778Z,13.8
2022-10-20T09:54:01.481Z,13.8
2022-10-20T09:55:04.789Z,13.9
2022-10-20T09:56:08.568Z,13.9
2022-10-20T09:57:12.671Z,13.9
2022-10-20T09:58:18.882Z,14
2022-10-20T09:59:22.058Z,14.1
2022-10-20T10:00:40.409Z,14.2
2022-10-20T10:01:44.031Z,14.3
2022-10-20T10:02:46.547Z,14.2
2022-10-20T10:03:49.899Z,14.3
2022-10-20T10:04:52.719Z,14.4
2022-10-20T10:05:56.342Z,14.6
2022-10-20T10:06:59.984Z,14.6
2022-10-20T10:08:02.863Z,14.6
2022-10-20T10:09:06.186Z,14.6
2022-10-20T10:10:10.189Z,14.5
2022-10-20T10:11:13.943Z,14.3
2022-10-20T10:12:17.988Z,14.1
2022-10-20T10:13:26.433Z,14.1
2022-10-20T10:14:30.136Z,14.1
2022-10-20T10:15:33.411Z,14.3
2022-10-20T10:16:36.473Z,14.4
2022-10-20T10:17:40.699Z,14.5
2022-10-20T10:18:50.635Z,14.6
2022-10-20T10:19:57.849Z,14.6
2022-10-20T10:21:01.578Z,14.6
2022-10-20T10:22:04.953Z,14.6
2022-10-20T10:23:07.549Z,14.7
2022-10-20T10:24:10.913Z,14.6
2022-10-20T10:25:14.433Z,14.8
2022-10-20T10:26:18.129Z,14.9
2022-10-20T10:27:21.952Z,14.9
2022-10-20T10:29:29.284Z,15.1
2022-10-20T10:30:32.999Z,15.3
2022-10-20T10:31:36.022Z,15.3
2022-10-20T10:32:40.189Z,15.3
2022-10-20T10:33:42.454Z,15.4
2022-10-20T10:34:45.720Z,15.3
2022-10-20T10:35:49.063Z,15.1
2022-10-20T10:36:51.501Z,15.1
2022-10-20T10:37:54.669Z,15.2
2022-10-20T10:38:57.701Z,15.3
2022-10-20T10:40:00.800Z,15.2
2022-10-20T10:41:04.153Z,15
2022-10-20T10:42:07.317Z,15.1
2022-10-20T10:43:11.398Z,15.2
2022-10-20T10:44:14.624Z,15.2
2022-10-20T10:45:18.276Z,15.3
2022-10-20T10:46:21.120Z,15.5
2022-10-20T10:47:23.833Z,15.5
2022-10-20T10:48:26.832Z,15.8
2022-10-20T10:49:30.280Z,15.9
2022-10-20T10:50:33.184Z,16
2022-10-20T10:51:36.906Z,16
2022-10-20T10:52:39.619Z,16
2022-10-20T10:53:42.718Z,16.2
2022-10-20T10:54:46.455Z,16.2
2022-10-20T10:55:51.121Z,16.3
2022-10-20T10:56:54.235Z,16.5
2022-10-20T10:57:57.008Z,16.5
2022-10-20T10:59:01.066Z,16.6
2022-10-20T11:00:03.501Z,16.8
2022-10-20T11:01:06.998Z,16.9
2022-10-20T11:02:09.855Z,17.1
2022-10-20T11:03:12.918Z,17.2
2022-10-20T11:04:15.986Z,17.3
2022-10-20T11:05:19.520Z,17.4
2022-10-20T11:06:23.099Z,17.5
2022-10-20T11:07:26.284Z,17.6
2022-10-20T11:08:30.535Z,17.8
2022-10-20T11:09:33.143Z,17.9
2022-10-20T11:10:36.280Z,18
2022-10-20T11:11:39.674Z,17.8
2022-10-20T11:12:43.283Z,17.6
2022-10-20T11:13:46.438Z,17.5
2022-10-20T11:14:50.574Z,17.4
2022-10-20T11:15:54.306Z,17.3
2022-10-20T11:16:57.387Z,17.3
2022-10-20T11:18:00.371Z,17.1
2022-10-20T11:19:03.517Z,17
2022-10-20T11:20:06.311Z,16.9
2022-10-20T11:21:09.454Z,16.9
2022-10-20T11:22:16.501Z,16.8
2022-10-20T11:23:19.361Z,16.8
2022-10-20T11:24:22.702Z,17
2022-10-20T11:25:26.180Z,17.1
2022-10-20T11:26:30.903Z,17.3
2022-10-20T11:27:36.023Z,17.5
2022-10-20T11:28:39.677Z,17.7
2022-10-20T11:29:43.093Z,17.7
2022-10-20T11:30:46.701Z,17.7
2022-10-20T11:31:49.407Z,17.9
2022-10-20T11:32:52.376Z,17.9
2022-10-20T11:33:55.818Z,17.9
2022-10-20T11:34:58.893Z,17.8
2022-10-20T11:36:02.072Z,17.8
2022-10-20T11:37:04.783Z,17.9
2022-10-20T11:38:07.930Z,17.7
2022-10-20T11:39:11.204Z,17.7
2022-10-20T11:40:14.296Z,17.6
2022-10-20T11:41:16.742Z,17.7
2022-10-20T11:42:19.539Z,17.8
2022-10-20T11:43:23.248Z,18
2022-10-20T11:44:26.362Z,18.1
2022-10-20T11:45:29.763Z,18.1
2022-10-20T11:46:33.882Z,18
2022-10-20T11:47:37.497Z,18
2022-10-20T11:48:40.872Z,18
2022-10-20T11:49:44.297Z,18
2022-10-20T11:50:47.908Z,18.1
2022-10-20T11:51:50.815Z,18.1
2022-10-20T11:52:53.910Z,18.2
2022-10-20T11:53:57.283Z,18.2
2022-10-20T11:55:00.421Z,18.2
2022-10-20T11:56:03.235Z,18.1
2022-10-20T11:57:06.371Z,17.9
2022-10-20T11:58:09.520Z,17.7
2022-10-20T11:59:12.875Z,17.6
2022-10-20T12:00:16.612Z,17.6
2022-10-20T12:01:20.198Z,17.7
2022-10-20T12:02:23.701Z,17.9
2022-10-20T12:03:26.969Z,18
2022-10-20T12:04:30.494Z,18.1
2022-10-20T12:05:34.246Z,18
2022-10-20T12:06:37.305Z,18.1
2022-10-20T12:07:40.679Z,18.1
2022-10-20T12:08:44.223Z,18.2
2022-10-20T12:09:47.039Z,18.4
2022-10-20T12:10:49.661Z,18.5
2022-10-20T12:11:52.195Z,18.5
2022-10-20T12:12:54.494Z,18.5
2022-10-20T12:13:57.926Z,18.4
2022-10-20T12:15:00.800Z,18.4
2022-10-20T12:16:04.334Z,18.5
2022-10-20T12:17:07.749Z,18.4
2022-10-20T12:18:11.893Z,18.5
2022-10-20T12:19:15.272Z,18.3
2022-10-20T12:20:18.714Z,18.3
2022-10-20T12:21:21.838Z,18.3
2022-10-20T12:22:25.022Z,18.3
2022-10-20T12:23:28.520Z,18.2
2022-10-20T12:24:31.797Z,17.9
2022-10-20T12:25:34.585Z,17.6
2022-10-20T12:26:45.817Z,17.5
2022-10-20T12:27:49.047Z,17.2
2022-10-20T12:28:51.846Z,17.1
2022-10-20T12:29:55.106Z,17
2022-10-20T12:30:58.253Z,17
2022-10-20T12:32:00.523Z,16.5
2022-10-20T12:33:04.060Z,16.5
2022-10-20T12:34:07.921Z,16.5
2022-10-20T12:35:11.453Z,16.6
2022-10-20T12:36:14.276Z,16.7
2022-10-20T12:37:17.013Z,16.6
2022-10-20T12:38:20.020Z,16.6
2022-10-20T12:39:22.804Z,16.5
2022-10-20T12:40:26.046Z,16.6
2022-10-20T12:41:29.225Z,16.4
2022-10-20T12:42:32.130Z,16.4
2022-10-20T12:43:35.072Z,16.6
2022-10-20T12:44:38.143Z,16.5
2022-10-20T12:45:41.456Z,16.5
2022-10-20T12:46:44.632Z,16.5
2022-10-20T12:47:47.781Z,16.4
2022-10-20T12:48:50.990Z,16.5
2022-10-20T12:49:55.046Z,16.5
2022-10-20T12:50:58.543Z,16.7
2022-10-20T12:52:01.078Z,16.6
2022-10-20T12:53:03.884Z,16.6
2022-10-20T12:54:06.679Z,16.7
2022-10-20T12:55:09.948Z,16.6
2022-10-20T12:56:13.417Z,16.5
2022-10-20T12:57:16.517Z,16.4
2022-10-20T12:58:19.389Z,16.4
2022-10-20T12:59:23.083Z,16.4
2022-10-20T13:00:26.079Z,16.5
2022-10-20T13:01:29.343Z,16.6
2022-10-20T13:02:32.623Z,16.6
2022-10-20T13:03:36.161Z,16.6
2022-10-20T13:04:46.977Z,16.6
2022-10-20T13:05:50.709Z,16.6
2022-10-20T13:06:54.213Z,16.6
2022-10-20T13:07:57.391Z,16.3
2022-10-20T13:09:01.031Z,16.3
2022-10-20T13:10:06.117Z,16.2
2022-10-20T13:11:09.149Z,16.1
2022-10-20T13:12:12.022Z,16
2022-10-20T13:13:15.732Z,16
2022-10-20T13:14:18.564Z,16.1
2022-10-20T13:15:21.678Z,16.1
2022-10-20T13:16:25.037Z,16.1
2022-10-20T13:17:27.678Z,16.1
2022-10-20T13:18:30.211Z,16
2022-10-20T13:19:32.642Z,16
2022-10-20T13:20:35.817Z,15.8
2022-10-20T13:21:39.832Z,15.7
2022-10-20T13:22:42.749Z,15.7
2022-10-20T13:23:46.311Z,15.6
2022-10-20T13:24:50.971Z,15.7
2022-10-20T13:25:54.946Z,15.7
2022-10-20T13:26:58.365Z,15.6
2022-10-20T13:28:00.679Z,15.6
2022-10-20T13:29:03.827Z,15.6
2022-10-20T13:30:07.095Z,15.5
2022-10-20T13:31:09.987Z,15.4
2022-10-20T13:32:13.392Z,15.3
2022-10-20T13:34:07.696Z,15.2
2022-10-20T13:35:10.811Z,15
2022-10-20T13:36:14.261Z,15.1
2022-10-20T13:37:24.175Z,15.1
2022-10-20T13:38:27.680Z,15.2
2022-10-20T13:39:30.569Z,15.3
2022-10-20T13:40:38.338Z,15.3
2022-10-20T13:41:49.122Z,15.4
2022-10-20T13:42:52.220Z,15.5
2022-10-20T13:44:06.998Z,15.5
2022-10-20T13:45:14.398Z,15.6
2022-10-20T13:46:18.011Z,15.6
2022-10-20T13:47:21.108Z,15.6
2022-10-20T13:48:24.974Z,15.5
2022-10-20T13:49:28.931Z,15.4
2022-10-20T13:50:31.762Z,15.4
2022-10-20T13:51:34.779Z,15.4
2022-10-20T13:52:40.395Z,15.4
2022-10-20T13:53:43.214Z,15.5
2022-10-20T13:54:46.938Z,15.5
2022-10-20T13:55:49.781Z,15.4
2022-10-20T13:56:53.331Z,15.5
2022-10-20T13:57:57.003Z,15.5
2022-10-20T13:59:07.240Z,15.5
2022-10-20T14:00:10.922Z,15.4
2022-10-20T14:01:14.555Z,15.4
2022-10-20T14:02:17.991Z,15.4
2022-10-20T14:03:21.334Z,15.4
2022-10-20T14:04:24.797Z,15.3
2022-10-20T14:05:27.980Z,15.3
2022-10-20T14:06:31.071Z,15.2
2022-10-20T14:07:35.162Z,15.2
2022-10-20T14:08:39.862Z,15.1
2022-10-20T14:09:55.583Z,15
2022-10-20T14:10:58.593Z,15
2022-10-20T14:12:01.664Z,14.9
2022-10-20T14:13:04.772Z,14.8
2022-10-20T14:14:08.487Z,14.8
2022-10-20T14:15:12.100Z,14.8
2022-10-20T14:16:15.590Z,14.7
2022-10-20T14:17:18.928Z,14.8
2022-10-20T14:18:22.072Z,14.6
2022-10-20T14:19:25.466Z,14.6
2022-10-20T14:20:28.251Z,14.5
2022-10-20T14:21:31.603Z,14.5
2022-10-20T14:22:36.583Z,14.5
2022-10-20T14:23:40.871Z,14.5
2022-10-20T14:24:44.441Z,14.5
2022-10-20T14:25:47.513Z,14.4
2022-10-20T14:26:50.939Z,14.4
2022-10-20T14:27:53.760Z,14.4
2022-10-20T14:28:57.434Z,14.4
2022-10-20T14:30:00.856Z,14.4
2022-10-20T14:31:04.130Z,14.3
2022-10-20T14:32:07.853Z,14.4
2022-10-20T14:33:11.649Z,14.3
2022-10-20T14:34:14.807Z,14.3